Alpena County Regional Airport
KAPN : now visible

Airfield :











YOU CAN JOIN US ON...

 
LOGIN :

Register | Disclaimer

   EN    FR    IT 

 









Legend :    VFR   Marginal VFR   IFR   Intensive IFR   Very Intensive IFR
Visi :
Ceiling :
>= 8 km
>= 3000ft
5 to 8 km
1000 to 3000 ft
1500m to 5 km
500 to 1000 ft
800 to 1500m
200 to 500 ft
< 800m
< 200 ft
Symbols :   Thunderstorms  Fog  Heavy snow  Heavy precipitations  Wind > 20 kt






- Airport Elevation : 690 ft
- IATA code : APN


KAPN - Alpena County Regional

CURRENT METAR :
  • 192254Z AUTO 00000KT 10SM OVC049 03/00 A2987 RMK AO2 SLP123 T00280000

EXPIRED METARs :
  • 192154Z AUTO 00000KT 10SM SCT032 OVC047 03/01 A2985 RMK AO2 SLP116 T00330006
  • 192054Z AUTO 23003KT 8SM OVC046 03/01 A2983 RMK AO2 SLP108 T00330006 53013
  • 191954Z 23003KT 8SM OVC041 04/01 A2981 RMK AO2 SLP101 T00390006

TAF KAPN
Valid from the 19 at 18:00 until the 20 at 18:00 UTC


191720Z 1918/2018 VRB04KT P6SM -DZ OVC020
FM191900 VRB04KT P6SM -DZ OVC018
FM192100 VRB04KT P6SM -DZ OVC021
FM200000 00000KT P6SM OVC030
FM200200 VRB03KT P6SM OVC035
FM200800 VRB03KT P6SM BKN029



MET'MAP, your aeronautical weather chart ! - Copyright ORBIFLY December 2007 - Disclaimer

ORBIFLY MET'MAP TEAM :

Programming & Development : Alexandra Zaïnal
Concept & Development : Baudouin d'Aumeries
Co-Development & Prog : Marc-Olivier Méhu
Technical & hardware support : Manuel Goepfert

Contact : metmap@orbifly.com




SOURCES & CREDITS :

   NOAA       Earth
Advisory